Hughes, AK

3:44 AM AKDT on October 23, 2014 (GMT -0800)
Indian Mountain | Change Station
CLOSE
Current Station
Airport
Location: Indian Mountain,
Elevation: 1276 ft
Nearby Weather Stations

Elev 1276 ft 65.99 °N, 153.70 °W | Updated 49 minutes ago

Mostly Cloudy
Mostly Cloudy
24 °F
Feels Like 24 °F
N
0
Wind Variable Wind from North

Today
High -- | Low -- °F
--% Chance of Precip.
Yesterday
High -- | Low -- °F
Precip. -- in
9:39 AM 6:17 PM
Waning Crescent, 0% visible
Pressure 29.85 in
Visibility 10.0 miles
Clouds Few 2700 ft
Mostly Cloudy 7500 ft
Dew Point 20 °F
Humidity 87%
Rainfall 0.00 in
Snow Depth Not available.
UV 0 out of 12
Pollen Not available.
Air Quality Not available.
Flu Activity Sporadic
METAR PAIM 231055Z AUTO 00000KT 10SM FEW027 BKN075 M05/M06 A2978 RMK AO2 SHSNB1022E1023 SLP108 T10461065

More Conditions Fewer Conditions

Pressure 29.85 in
Visibility 10.0 miles
Clouds Few 2700 ft
Mostly Cloudy 7500 ft
Dew Point 20 °F
Humidity 87%
Rainfall 0.00 in
Snow Depth Not available.
UV 0 out of 12
Pollen Not available.
Air Quality Not available.
Flu Activity Sporadic
METAR PAIM 231055Z AUTO 00000KT 10SM FEW027 BKN075 M05/M06 A2978 RMK AO2 SHSNB1022E1023 SLP108 T10461065

More Conditions Fewer Conditions

10-Day Weather Forecast

Almanac

Astronomy

Oct. 23, 2014 Rise Set
Actual Time 9:39 AM AKDT 6:17 PM AKDT
Civil Twilight 8:44 AM AKDT 7:12 PM AKDT
Nautical Twilight 7:44 AM AKDT 8:11 PM AKDT
Astronomical Twilight 6:44 AM AKDT 9:11 PM AKDT
Moon 9:26 AM AKDT 6:21 PM AKDT
Length of Visible Light 10h 27m
Length of Day
8h 38m
Tomorrow will be 7m 12s shorter.
Waning Crescent, 0% of the Moon is Illuminated
Today
Waning Crescent
Oct 23
New
Oct 30
First Quarter
Nov 6
Full
Nov 14
Last Quarter

Today's Extremes

State Highs State Lows

Community

WunderPhotos

Upload Photos

1,764,209 photos uploaded!

Nearby

Snow Depth

Station Depth Elevation
Gobblers Knob 1 in 2030 ft
Coldfoot 5 in 1040 ft
Atigun Pass 14 in 4800 ft
Little Chena Ridge 5 in 2000 ft
Imnaviat Creek 22 in 3050 ft

Earthquake Activity

City Distance Mag. Time & Date
No recent earthquake activity has been reported nearby.
Minimum magnitude displayed is 2.5.

Coastal Water Temperatures

Place Temperature
No Stations Reporting

Nearby Weather Stations